createdAt,value
2023-06-16T00:00:38.121Z,18.20
2023-06-16T00:03:05.135Z,18.20
2023-06-16T00:05:32.059Z,18.10
2023-06-16T00:08:00.321Z,18.10
2023-06-16T00:10:27.467Z,18.00
2023-06-16T00:12:54.220Z,17.90
2023-06-16T00:15:21.788Z,17.80
2023-06-16T00:17:51.028Z,17.70
2023-06-16T00:20:22.503Z,17.70
2023-06-16T00:22:50.046Z,17.60
2023-06-16T00:25:18.652Z,17.40
2023-06-16T00:27:45.633Z,17.50
2023-06-16T00:30:12.947Z,17.40
2023-06-16T00:32:40.100Z,17.30
2023-06-16T00:35:07.314Z,17.20
2023-06-16T00:37:34.230Z,17.10
2023-06-16T00:40:00.966Z,17.00
2023-06-16T00:42:27.612Z,16.90
2023-06-16T00:44:54.281Z,16.90
2023-06-16T00:47:21.430Z,16.90
2023-06-16T00:49:48.276Z,16.80
2023-06-16T00:52:16.755Z,16.80
2023-06-16T00:54:44.389Z,16.90
2023-06-16T00:57:11.049Z,16.90
2023-06-16T00:59:37.771Z,16.80
2023-06-16T01:02:05.067Z,16.70
2023-06-16T01:04:32.782Z,16.70
2023-06-16T01:07:30.548Z,16.70
2023-06-16T01:10:06.525Z,16.40
2023-06-16T01:12:42.822Z,16.30
2023-06-16T01:15:14.521Z,16.30
2023-06-16T01:17:45.395Z,16.20
2023-06-16T01:20:23.954Z,16.20
2023-06-16T01:22:56.708Z,16.20
2023-06-16T01:25:29.289Z,16.20
2023-06-16T01:27:58.112Z,16.20
2023-06-16T01:30:26.998Z,16.30
2023-06-16T01:32:56.751Z,16.20
2023-06-16T01:35:24.284Z,16.30
2023-06-16T01:37:52.404Z,16.30
2023-06-16T01:40:22.994Z,16.30
2023-06-16T01:42:50.862Z,16.50
2023-06-16T01:45:17.734Z,16.50
2023-06-16T01:47:45.851Z,16.50
2023-06-16T01:50:13.501Z,16.40
2023-06-16T01:52:40.387Z,16.30
2023-06-16T01:55:08.319Z,16.20
2023-06-16T01:57:36.360Z,16.20
2023-06-16T02:00:12.568Z,16.10
2023-06-16T02:02:43.051Z,16.00
2023-06-16T02:05:12.434Z,15.90
2023-06-16T02:07:42.147Z,15.70
2023-06-16T02:10:10.402Z,15.70
2023-06-16T02:12:37.181Z,15.60
2023-06-16T02:15:04.500Z,15.50
2023-06-16T02:17:31.220Z,15.40
2023-06-16T02:19:59.569Z,15.40
2023-06-16T02:22:26.287Z,15.30
2023-06-16T02:24:53.063Z,15.30
2023-06-16T02:27:19.685Z,15.30
2023-06-16T02:29:47.350Z,15.30
2023-06-16T02:32:15.008Z,15.30
2023-06-16T02:34:44.272Z,15.40
2023-06-16T02:37:12.807Z,15.40
2023-06-16T02:39:40.157Z,15.20
2023-06-16T02:42:08.802Z,15.10
2023-06-16T02:44:35.481Z,15.00
2023-06-16T02:47:02.663Z,15.10
2023-06-16T02:49:29.459Z,14.90
2023-06-16T02:51:56.174Z,14.80
2023-06-16T02:54:23.157Z,14.90
2023-06-16T02:56:49.767Z,14.80
2023-06-16T02:59:16.436Z,14.80
2023-06-16T03:01:43.122Z,14.90
2023-06-16T03:04:10.543Z,14.90
2023-06-16T03:06:37.177Z,14.80
2023-06-16T03:09:07.190Z,14.70
2023-06-16T03:11:33.928Z,14.50
2023-06-16T03:14:00.650Z,14.50
2023-06-16T03:16:28.414Z,14.40
2023-06-16T03:18:56.034Z,14.60
2023-06-16T03:21:23.064Z,14.50
2023-06-16T03:23:51.720Z,14.50
2023-06-16T03:26:19.515Z,14.40
2023-06-16T03:28:46.286Z,14.50
2023-06-16T03:31:12.883Z,14.40
2023-06-16T03:33:39.704Z,14.30
2023-06-16T03:36:06.740Z,14.20
2023-06-16T03:38:33.416Z,14.10
2023-06-16T03:41:00.062Z,14.20
2023-06-16T03:43:26.715Z,14.00
2023-06-16T03:45:53.355Z,14.10
2023-06-16T03:48:20.038Z,14.20
2023-06-16T03:50:47.028Z,14.10
2023-06-16T03:53:16.661Z,14.10
2023-06-16T03:55:43.809Z,14.30
2023-06-16T03:58:11.563Z,14.30
2023-06-16T04:00:38.167Z,14.20
2023-06-16T04:03:05.701Z,14.30
2023-06-16T04:05:33.971Z,14.30
2023-06-16T04:08:00.781Z,14.30
2023-06-16T04:10:27.502Z,14.50
2023-06-16T04:12:54.944Z,14.60
2023-06-16T04:15:21.647Z,14.80
2023-06-16T04:17:51.410Z,14.90
2023-06-16T04:20:18.299Z,15.00
2023-06-16T04:22:45.080Z,15.00
2023-06-16T04:25:12.195Z,15.00
2023-06-16T04:27:39.576Z,15.00
2023-06-16T04:30:07.885Z,15.00
2023-06-16T04:32:37.761Z,15.10
2023-06-16T04:35:05.826Z,15.20
2023-06-16T04:37:34.058Z,15.20
2023-06-16T04:40:00.953Z,15.30
2023-06-16T04:42:29.341Z,15.30
2023-06-16T04:44:56.538Z,15.30
2023-06-16T04:47:23.486Z,15.30
2023-06-16T04:49:50.773Z,15.40
2023-06-16T04:52:17.491Z,15.50
2023-06-16T04:54:44.486Z,15.70
2023-06-16T04:57:11.164Z,15.70
2023-06-16T04:59:37.839Z,15.80
2023-06-16T05:02:04.709Z,15.80
2023-06-16T05:04:31.414Z,15.90
2023-06-16T05:06:58.096Z,16.10
2023-06-16T05:09:24.712Z,16.20
2023-06-16T05:11:51.600Z,16.30
2023-06-16T05:14:18.379Z,16.40
2023-06-16T05:16:45.127Z,16.50
2023-06-16T05:19:11.894Z,16.60
2023-06-16T05:21:38.617Z,16.60
2023-06-16T05:24:05.444Z,16.70
2023-06-16T05:26:32.169Z,16.80
2023-06-16T05:28:58.849Z,16.90
2023-06-16T05:31:25.750Z,17.00
2023-06-16T05:33:52.537Z,17.10
2023-06-16T05:36:19.151Z,17.30
2023-06-16T05:38:45.883Z,17.40
2023-06-16T05:41:12.521Z,17.50
2023-06-16T05:43:39.168Z,17.60
2023-06-16T05:46:05.817Z,17.70
2023-06-16T05:48:32.459Z,17.90
2023-06-16T05:51:00.026Z,17.90
2023-06-16T05:53:26.765Z,17.90
2023-06-16T05:55:53.393Z,17.90
2023-06-16T05:58:20.052Z,17.90
2023-06-16T06:00:46.676Z,18.00
2023-06-16T06:03:13.451Z,18.10
2023-06-16T06:05:40.282Z,18.20
2023-06-16T06:08:07.050Z,18.30
2023-06-16T06:10:33.676Z,18.30
2023-06-16T06:13:04.492Z,18.40
2023-06-16T06:15:31.159Z,18.50
2023-06-16T06:17:58.125Z,18.50
2023-06-16T06:20:24.806Z,18.60
2023-06-16T06:22:51.453Z,18.70
2023-06-16T06:25:18.114Z,18.80
2023-06-16T06:27:44.817Z,18.90
2023-06-16T06:30:11.774Z,19.00
2023-06-16T06:32:39.886Z,19.00
2023-06-16T06:35:07.007Z,19.20
2023-06-16T06:37:33.638Z,19.20
2023-06-16T06:40:00.327Z,19.30
2023-06-16T06:42:28.117Z,19.30
2023-06-16T06:44:54.953Z,19.40
2023-06-16T06:47:23.109Z,19.50
2023-06-16T06:49:50.940Z,19.60
2023-06-16T06:52:17.737Z,19.70
2023-06-16T06:54:44.465Z,19.70
2023-06-16T06:57:12.165Z,19.80
2023-06-16T06:59:40.006Z,19.80
2023-06-16T07:02:07.523Z,19.90
2023-06-16T07:04:35.784Z,20.00
2023-06-16T07:07:03.147Z,20.20
2023-06-16T07:09:31.419Z,20.30
2023-06-16T07:11:58.792Z,20.30
2023-06-16T07:14:25.746Z,20.30
2023-06-16T07:16:52.344Z,20.30
2023-06-16T07:19:19.132Z,20.30
2023-06-16T07:21:45.734Z,20.40
2023-06-16T07:24:12.462Z,20.40
2023-06-16T07:26:39.098Z,20.60
2023-06-16T07:29:07.720Z,20.80
2023-06-16T07:31:34.712Z,21.00
2023-06-16T07:34:01.336Z,21.20
2023-06-16T07:36:27.969Z,21.40
2023-06-16T07:38:54.571Z,21.60
2023-06-16T07:41:21.258Z,21.70
2023-06-16T07:43:49.366Z,22.00
2023-06-16T07:46:18.382Z,22.10
2023-06-16T07:48:45.368Z,22.30
2023-06-16T07:51:12.039Z,22.30
2023-06-16T07:53:41.147Z,22.60
2023-06-16T07:56:07.800Z,22.80
2023-06-16T07:58:36.323Z,22.80
2023-06-16T08:01:03.002Z,22.80
2023-06-16T08:03:29.840Z,23.20
2023-06-16T08:05:56.724Z,23.10
2023-06-16T08:08:24.645Z,23.30
2023-06-16T08:10:52.191Z,23.60
2023-06-16T08:13:18.839Z,24.00
2023-06-16T08:15:45.601Z,23.90
2023-06-16T08:18:12.268Z,23.90
2023-06-16T08:20:38.933Z,24.30
2023-06-16T08:23:05.616Z,24.60
2023-06-16T08:25:32.271Z,24.90
2023-06-16T08:27:59.228Z,25.10
2023-06-16T08:30:25.844Z,25.50
2023-06-16T08:32:54.222Z,25.60
2023-06-16T08:35:20.959Z,25.50
2023-06-16T08:37:47.665Z,25.60
2023-06-16T08:40:14.685Z,25.80
2023-06-16T08:42:42.046Z,25.90
2023-06-16T08:45:10.975Z,26.00
2023-06-16T08:47:40.409Z,26.10
2023-06-16T08:50:09.039Z,26.60
2023-06-16T08:52:45.241Z,27.00
2023-06-16T08:55:15.510Z,27.30
2023-06-16T08:57:48.333Z,27.20
2023-06-16T09:00:16.239Z,27.00
2023-06-16T09:02:45.299Z,27.00
2023-06-16T09:05:13.000Z,27.10
2023-06-16T09:07:40.640Z,27.10
2023-06-16T09:10:09.888Z,27.30
2023-06-16T09:12:36.829Z,27.70
2023-06-16T09:15:11.502Z,27.70
2023-06-16T09:17:39.336Z,27.70
2023-06-16T09:20:09.681Z,27.50
2023-06-16T09:22:37.331Z,27.60
2023-06-16T09:25:10.120Z,27.70
2023-06-16T09:27:51.761Z,28.10
2023-06-16T09:30:21.405Z,28.50
2023-06-16T09:32:50.032Z,28.60
2023-06-16T09:35:17.011Z,28.50
2023-06-16T09:37:44.888Z,28.50
2023-06-16T09:40:12.300Z,28.30
2023-06-16T09:42:39.074Z,28.00
2023-06-16T09:45:14.579Z,28.40
2023-06-16T09:47:49.221Z,28.80
2023-06-16T09:50:18.298Z,28.80
2023-06-16T09:52:47.915Z,29.00
2023-06-16T09:55:15.803Z,29.10
2023-06-16T09:57:44.416Z,29.00
2023-06-16T10:00:17.512Z,28.80
2023-06-16T10:02:50.120Z,28.70
2023-06-16T10:05:19.533Z,28.90
2023-06-16T10:07:52.716Z,29.10
2023-06-16T10:10:24.793Z,29.20
2023-06-16T10:12:52.856Z,29.30
2023-06-16T10:15:29.171Z,29.40
2023-06-16T10:17:58.381Z,29.50
2023-06-16T10:20:29.526Z,29.40
2023-06-16T10:22:57.192Z,29.40
2023-06-16T10:25:23.878Z,29.70
2023-06-16T10:27:51.825Z,29.80
2023-06-16T10:30:20.572Z,29.70
2023-06-16T10:32:49.097Z,29.50
2023-06-16T10:35:17.787Z,29.60
2023-06-16T10:37:48.757Z,29.50
2023-06-16T10:40:15.577Z,30.10
2023-06-16T10:42:42.598Z,30.50
2023-06-16T10:45:29.947Z,30.60
2023-06-16T10:47:58.673Z,30.20
2023-06-16T10:50:40.602Z,30.50
2023-06-16T10:53:24.298Z,30.30
2023-06-16T10:56:05.656Z,30.20
2023-06-16T10:58:33.796Z,30.30
2023-06-16T11:01:06.973Z,30.50
2023-06-16T11:03:43.518Z,30.80
2023-06-16T11:06:10.973Z,30.90
2023-06-16T11:08:52.163Z,31.20
2023-06-16T11:11:18.877Z,31.20
2023-06-16T11:13:46.176Z,30.80
2023-06-16T11:16:12.883Z,30.50
2023-06-16T11:18:39.731Z,30.60
2023-06-16T11:21:11.482Z,31.00
2023-06-16T11:23:39.923Z,31.50
2023-06-16T11:26:10.465Z,31.50
2023-06-16T11:28:42.060Z,31.20
2023-06-16T11:31:10.036Z,31.30
2023-06-16T11:33:37.437Z,31.20
2023-06-16T11:36:24.821Z,31.10
2023-06-16T11:38:53.375Z,31.00
2023-06-16T11:41:22.049Z,31.10
2023-06-16T11:43:49.822Z,30.90
2023-06-16T11:46:19.369Z,31.00
2023-06-16T11:48:46.220Z,31.10
2023-06-16T11:51:14.848Z,30.90
2023-06-16T11:53:41.718Z,31.30
2023-06-16T11:56:10.117Z,31.20
2023-06-16T11:58:36.902Z,31.20
2023-06-16T12:01:05.268Z,31.10
2023-06-16T12:03:38.242Z,31.50
2023-06-16T12:06:10.670Z,31.60
2023-06-16T12:08:41.848Z,31.70
2023-06-16T12:11:10.277Z,31.60
2023-06-16T12:13:38.087Z,31.40
2023-06-16T12:16:06.477Z,31.60
2023-06-16T12:18:33.137Z,31.80
2023-06-16T12:21:19.264Z,31.90
2023-06-16T12:23:59.728Z,31.80
2023-06-16T12:26:29.211Z,31.90
2023-06-16T12:28:56.983Z,31.60
2023-06-16T12:31:27.935Z,31.70
2023-06-16T12:33:55.249Z,32.40
2023-06-16T12:36:23.152Z,32.70
2023-06-16T12:38:50.635Z,32.40
2023-06-16T12:41:18.850Z,31.90
2023-06-16T12:43:51.210Z,31.50
2023-06-16T12:46:18.716Z,31.00
2023-06-16T12:48:45.757Z,31.20
2023-06-16T12:51:14.706Z,31.40
2023-06-16T12:53:43.494Z,31.00
2023-06-16T12:56:11.745Z,29.90
2023-06-16T12:58:42.126Z,28.70
2023-06-16T13:01:11.519Z,29.20
2023-06-16T13:03:41.655Z,30.50
2023-06-16T13:06:08.491Z,29.90
2023-06-16T13:08:38.280Z,29.10
2023-06-16T13:11:04.957Z,28.50
2023-06-16T13:13:31.618Z,28.10
2023-06-16T13:15:58.280Z,29.10
2023-06-16T13:18:24.963Z,30.00
2023-06-16T13:20:51.954Z,30.80
2023-06-16T13:23:19.057Z,30.90
2023-06-16T13:25:48.830Z,31.00
2023-06-16T13:28:15.672Z,31.20
2023-06-16T13:30:42.575Z,31.20
2023-06-16T13:33:09.212Z,31.40
2023-06-16T13:35:35.850Z,31.30
2023-06-16T13:38:02.604Z,30.80
2023-06-16T13:40:29.267Z,30.70
2023-06-16T13:42:55.965Z,30.30
2023-06-16T13:45:22.612Z,29.90
2023-06-16T13:47:49.238Z,29.70
2023-06-16T13:50:15.975Z,29.70
2023-06-16T13:52:42.853Z,29.50
2023-06-16T13:55:09.594Z,30.30
2023-06-16T13:57:36.895Z,30.70
2023-06-16T14:00:06.246Z,31.10
2023-06-16T14:02:34.202Z,31.20
2023-06-16T14:05:01.070Z,31.00
2023-06-16T14:07:27.705Z,31.30
2023-06-16T14:09:54.333Z,30.80
2023-06-16T14:12:21.077Z,30.70
2023-06-16T14:14:47.801Z,31.20
2023-06-16T14:17:14.443Z,31.10
2023-06-16T14:19:41.108Z,31.00
2023-06-16T14:22:07.754Z,31.20
2023-06-16T14:24:34.549Z,31.40
2023-06-16T14:27:01.305Z,31.20
2023-06-16T14:29:27.953Z,31.30
2023-06-16T14:31:54.625Z,31.50
2023-06-16T14:34:21.593Z,31.20
2023-06-16T14:36:48.224Z,31.30
2023-06-16T14:39:14.873Z,30.40
2023-06-16T14:41:41.593Z,30.80
2023-06-16T14:44:08.242Z,31.20
2023-06-16T14:46:34.933Z,31.30
2023-06-16T14:49:01.635Z,31.30
2023-06-16T14:51:30.799Z,31.20
2023-06-16T14:53:57.785Z,31.10
2023-06-16T14:56:24.478Z,31.20
2023-06-16T14:58:51.055Z,31.30
2023-06-16T15:01:17.658Z,31.20
2023-06-16T15:03:46.520Z,31.10
2023-06-16T15:06:16.141Z,30.80
2023-06-16T15:08:43.341Z,31.00
2023-06-16T15:11:10.003Z,31.10
2023-06-16T15:13:36.603Z,31.00
2023-06-16T15:16:03.344Z,30.70
2023-06-16T15:18:30.852Z,30.50
2023-06-16T15:20:57.573Z,30.40
2023-06-16T15:23:24.170Z,30.40
2023-06-16T15:25:51.822Z,30.60
2023-06-16T15:28:18.515Z,30.50
2023-06-16T15:30:45.393Z,30.50
2023-06-16T15:33:12.761Z,30.50
2023-06-16T15:35:39.439Z,30.30
2023-06-16T15:38:06.241Z,30.40
2023-06-16T15:40:32.924Z,30.20
2023-06-16T15:43:05.550Z,29.90
2023-06-16T15:45:32.242Z,30.00
2023-06-16T15:47:59.035Z,30.10
2023-06-16T15:50:27.163Z,29.80
2023-06-16T15:52:53.859Z,29.50
2023-06-16T15:55:20.703Z,29.80
2023-06-16T15:57:47.381Z,29.60
2023-06-16T16:00:14.981Z,29.30
2023-06-16T16:02:42.454Z,29.40
2023-06-16T16:05:09.259Z,29.30
2023-06-16T16:07:36.029Z,29.40
2023-06-16T16:10:02.979Z,29.50
2023-06-16T16:12:30.904Z,29.30
2023-06-16T16:14:58.118Z,29.30
2023-06-16T16:17:29.389Z,29.30
2023-06-16T16:19:56.672Z,29.30
2023-06-16T16:22:24.171Z,29.10
2023-06-16T16:24:51.131Z,29.20
2023-06-16T16:27:19.503Z,29.20
2023-06-16T16:29:46.879Z,29.20
2023-06-16T16:32:14.211Z,28.70
2023-06-16T16:34:41.030Z,28.50
2023-06-16T16:37:07.916Z,28.60
2023-06-16T16:39:35.000Z,28.50
2023-06-16T16:42:01.660Z,28.30
2023-06-16T16:44:33.158Z,28.20
2023-06-16T16:47:01.202Z,28.10
2023-06-16T16:49:29.134Z,27.90
2023-06-16T16:51:56.610Z,28.20
2023-06-16T16:54:24.732Z,28.30
2023-06-16T16:56:51.586Z,28.20
2023-06-16T16:59:20.545Z,27.90
2023-06-16T17:01:47.579Z,27.90
2023-06-16T17:04:14.347Z,28.00
2023-06-16T17:06:42.255Z,27.80
2023-06-16T17:09:08.858Z,27.60
2023-06-16T17:11:35.482Z,27.80
2023-06-16T17:14:02.413Z,27.70
2023-06-16T17:16:29.149Z,27.50
2023-06-16T17:18:55.788Z,27.60
2023-06-16T17:21:22.440Z,27.50
2023-06-16T17:23:50.012Z,27.60
2023-06-16T17:26:16.926Z,27.70
2023-06-16T17:28:44.025Z,27.70
2023-06-16T17:31:10.782Z,27.40
2023-06-16T17:33:37.972Z,27.30
2023-06-16T17:36:04.977Z,27.40
2023-06-16T17:38:31.556Z,27.20
2023-06-16T17:40:58.332Z,27.20
2023-06-16T17:43:25.051Z,27.00
2023-06-16T17:45:51.942Z,26.90
2023-06-16T17:48:19.427Z,26.60
2023-06-16T17:50:46.618Z,26.70
2023-06-16T17:53:13.392Z,26.60
2023-06-16T17:55:40.070Z,26.20
2023-06-16T17:58:06.763Z,26.30
2023-06-16T18:00:33.651Z,26.20
2023-06-16T18:03:00.519Z,26.20
2023-06-16T18:05:27.523Z,26.10
2023-06-16T18:07:54.327Z,26.00
2023-06-16T18:10:21.688Z,26.20
2023-06-16T18:12:48.751Z,26.30
2023-06-16T18:15:18.232Z,26.30
2023-06-16T18:17:44.988Z,26.30
2023-06-16T18:20:11.715Z,26.20
2023-06-16T18:22:38.421Z,26.20
2023-06-16T18:25:05.697Z,26.10
2023-06-16T18:27:33.653Z,26.00
2023-06-16T18:30:03.436Z,25.90
2023-06-16T18:32:30.474Z,25.80
2023-06-16T18:34:57.360Z,25.70
2023-06-16T18:37:26.955Z,25.80
2023-06-16T18:39:53.577Z,25.70
2023-06-16T18:42:20.261Z,25.50
2023-06-16T18:44:46.917Z,25.50
2023-06-16T18:47:13.613Z,25.40
2023-06-16T18:49:40.389Z,25.30
2023-06-16T18:52:07.604Z,25.20
2023-06-16T18:54:34.298Z,25.20
2023-06-16T18:57:01.568Z,25.10
2023-06-16T18:59:29.454Z,25.10
2023-06-16T19:01:57.426Z,24.90
2023-06-16T19:04:24.109Z,24.90
2023-06-16T19:06:50.717Z,24.90
2023-06-16T19:09:17.575Z,24.90
2023-06-16T19:11:44.289Z,24.80
2023-06-16T19:14:10.951Z,24.70
2023-06-16T19:16:37.717Z,24.60
2023-06-16T19:19:04.387Z,24.50
2023-06-16T19:21:31.017Z,24.40
2023-06-16T19:23:57.677Z,24.40
2023-06-16T19:26:24.328Z,24.30
2023-06-16T19:28:53.070Z,24.20
2023-06-16T19:31:24.018Z,24.20
2023-06-16T19:33:51.159Z,24.20
2023-06-16T19:36:18.225Z,24.10
2023-06-16T19:38:44.882Z,24.00
2023-06-16T19:41:13.807Z,23.80
2023-06-16T19:43:41.454Z,23.70
2023-06-16T19:46:08.158Z,23.60
2023-06-16T19:48:34.824Z,23.60
2023-06-16T19:51:01.709Z,23.50
2023-06-16T19:53:29.078Z,23.40
2023-06-16T19:55:57.923Z,23.30
2023-06-16T19:58:24.675Z,23.30
2023-06-16T20:00:51.493Z,23.20
2023-06-16T20:03:18.538Z,23.10
2023-06-16T20:05:45.427Z,23.00
2023-06-16T20:08:12.022Z,22.90
2023-06-16T20:10:38.730Z,22.80
2023-06-16T20:13:07.311Z,22.80
2023-06-16T20:15:33.927Z,22.70
2023-06-16T20:18:00.714Z,22.60
2023-06-16T20:20:27.619Z,22.50
2023-06-16T20:22:54.224Z,22.40
2023-06-16T20:25:21.013Z,22.40
2023-06-16T20:27:53.983Z,22.30
2023-06-16T20:30:21.782Z,22.20
2023-06-16T20:32:48.886Z,22.20
2023-06-16T20:35:18.337Z,22.10
2023-06-16T20:37:50.426Z,22.10
2023-06-16T20:40:17.453Z,22.00
2023-06-16T20:42:47.125Z,21.90
2023-06-16T20:45:19.199Z,21.90
2023-06-16T20:47:55.308Z,21.80
2023-06-16T20:50:27.917Z,21.80
2023-06-16T20:52:55.411Z,21.70
2023-06-16T20:55:22.157Z,21.50
2023-06-16T20:57:49.792Z,21.40
2023-06-16T21:00:19.102Z,21.30
2023-06-16T21:02:46.804Z,21.30
2023-06-16T21:05:14.132Z,21.20
2023-06-16T21:07:48.710Z,21.20
2023-06-16T21:10:17.305Z,21.10
2023-06-16T21:12:44.202Z,21.00
2023-06-16T21:15:12.345Z,21.00
2023-06-16T21:17:39.756Z,21.00
2023-06-16T21:20:09.743Z,21.00
2023-06-16T21:22:37.532Z,20.90
2023-06-16T21:25:04.868Z,20.80
2023-06-16T21:27:32.435Z,20.70
2023-06-16T21:30:00.120Z,20.70
2023-06-16T21:32:29.813Z,20.70
2023-06-16T21:34:57.436Z,19.90
2023-06-16T21:37:25.604Z,20.50
2023-06-16T21:40:11.198Z,20.50
2023-06-16T21:42:43.376Z,20.40
2023-06-16T21:45:12.621Z,20.30
2023-06-16T21:47:39.736Z,20.30
2023-06-16T21:50:08.095Z,20.30
2023-06-16T21:52:34.824Z,20.30
2023-06-16T21:55:02.132Z,20.20
2023-06-16T21:57:29.356Z,20.10
2023-06-16T21:59:56.684Z,20.10
2023-06-16T22:02:23.746Z,20.10
2023-06-16T22:04:50.632Z,20.10
2023-06-16T22:07:21.414Z,20.00
2023-06-16T22:09:49.680Z,19.90
2023-06-16T22:12:17.469Z,19.90
2023-06-16T22:14:46.340Z,19.80
2023-06-16T22:17:13.366Z,19.80
2023-06-16T22:19:40.451Z,19.80
2023-06-16T22:22:07.293Z,19.70
2023-06-16T22:24:37.670Z,19.70
2023-06-16T22:27:15.852Z,19.60
2023-06-16T22:29:47.234Z,19.60
2023-06-16T22:32:14.364Z,19.50
2023-06-16T22:34:41.086Z,19.50
2023-06-16T22:37:07.768Z,19.50
2023-06-16T22:39:34.809Z,19.40
2023-06-16T22:42:01.403Z,19.40
2023-06-16T22:44:28.057Z,19.30
2023-06-16T22:46:57.285Z,19.30
2023-06-16T22:49:25.195Z,19.20
2023-06-16T22:51:57.771Z,19.10
2023-06-16T22:54:26.473Z,19.10
2023-06-16T22:56:53.641Z,19.00
2023-06-16T22:59:20.496Z,18.90
2023-06-16T23:01:47.216Z,18.80
2023-06-16T23:04:14.194Z,18.70
2023-06-16T23:06:41.170Z,18.60
2023-06-16T23:09:08.387Z,18.60
2023-06-16T23:11:35.114Z,18.60
2023-06-16T23:14:02.722Z,18.50
2023-06-16T23:16:29.977Z,18.40
2023-06-16T23:18:56.749Z,18.30
2023-06-16T23:21:25.009Z,18.10
2023-06-16T23:23:52.013Z,17.90
2023-06-16T23:26:19.092Z,17.70
2023-06-16T23:28:45.796Z,17.60
2023-06-16T23:31:13.065Z,17.60
2023-06-16T23:33:40.600Z,18.20
2023-06-16T23:36:07.674Z,17.40
2023-06-16T23:38:37.189Z,17.40
2023-06-16T23:41:04.533Z,17.40
2023-06-16T23:43:31.790Z,17.30
2023-06-16T23:45:58.798Z,17.10
2023-06-16T23:48:25.808Z,17.10
2023-06-16T23:50:52.593Z,17.10
2023-06-16T23:53:19.229Z,16.90
2023-06-16T23:55:46.064Z,16.90
2023-06-16T23:58:12.685Z,16.70
